CBBC

Bella Bella / Campbell Island Airport

Bella Bella, , Canada
METAR CBBC 220538Z AUTO 16003KT 140V210 9SM OVC024 13/11 A3013 RMK SLP206
Observed Flight Rules
Jun-22 @ 05:38 UTC (13 minutes ago) Marginal Visual Flight Rules
Wind Visibility Clouds
160° at 3 knots 9 miles
  • Overcast at 2,400' AGL
Temperatures Readings
Current 13°C / 55°F
Dewpoint 11°C / 52°F
Humidity 88%
Altimeter 30.13" Hg
Pressure 1020.6 hPa
Elevation 43
METAR CBBC 220538Z AUTO 16003KT 140V210 9SM OVC024 13/11 A3013 RMK SLP206
Observed Flight Rules
Jun-22 @ 05:38 UTC
(13 minutes ago)
MVFR
Wind Visibility
160° at 3 knots 9 miles
Clouds
  • Overcast at 2,400' AGL
Temperature Dewpoint
13°C / 55°F 11°C / 52°F
Humidity Altimeter Pressure
88% 30.13" Hg 1020.6 hPa